createdAt,value
2023-05-13T00:00:36.621Z,13.30
2023-05-13T00:03:03.530Z,13.20
2023-05-13T00:05:30.478Z,13.20
2023-05-13T00:07:57.233Z,13.20
2023-05-13T00:10:25.217Z,13.20
2023-05-13T00:12:52.232Z,13.20
2023-05-13T00:15:19.026Z,13.10
2023-05-13T00:17:46.278Z,13.10
2023-05-13T00:20:13.082Z,13.10
2023-05-13T00:22:39.855Z,13.00
2023-05-13T00:25:06.790Z,12.90
2023-05-13T00:27:33.687Z,12.90
2023-05-13T00:30:00.550Z,12.90
2023-05-13T00:32:27.650Z,12.90
2023-05-13T00:34:54.405Z,12.90
2023-05-13T00:37:21.236Z,12.80
2023-05-13T00:39:48.439Z,12.80
2023-05-13T00:42:15.353Z,12.70
2023-05-13T00:44:42.449Z,12.70
2023-05-13T00:47:11.363Z,12.70
2023-05-13T00:49:38.347Z,12.60
2023-05-13T00:52:05.845Z,12.60
2023-05-13T00:54:32.651Z,12.50
2023-05-13T00:56:59.618Z,12.50
2023-05-13T00:59:27.688Z,12.50
2023-05-13T01:02:06.648Z,12.40
2023-05-13T01:04:39.659Z,12.40
2023-05-13T01:07:09.920Z,12.30
2023-05-13T01:10:00.231Z,12.30
2023-05-13T01:12:31.324Z,12.20
2023-05-13T01:15:01.042Z,12.20
2023-05-13T01:17:32.165Z,12.20
2023-05-13T01:20:00.700Z,12.10
2023-05-13T01:22:27.847Z,12.10
2023-05-13T01:24:55.460Z,12.10
2023-05-13T01:27:23.016Z,12.00
2023-05-13T01:29:50.527Z,11.90
2023-05-13T01:32:23.097Z,11.90
2023-05-13T01:34:51.392Z,11.90
2023-05-13T01:37:21.263Z,11.90
2023-05-13T01:39:48.748Z,11.90
2023-05-13T01:42:16.067Z,11.90
2023-05-13T01:44:43.570Z,11.80
2023-05-13T01:47:10.452Z,11.80
2023-05-13T01:49:37.262Z,11.80
2023-05-13T01:52:04.491Z,11.80
2023-05-13T01:54:32.351Z,11.70
2023-05-13T01:57:05.230Z,11.70
2023-05-13T01:59:32.194Z,11.70
2023-05-13T02:01:59.429Z,11.60
2023-05-13T02:04:27.406Z,11.60
2023-05-13T02:06:54.430Z,11.60
2023-05-13T02:09:21.827Z,11.60
2023-05-13T02:11:48.735Z,11.50
2023-05-13T02:14:16.089Z,11.50
2023-05-13T02:16:43.208Z,11.50
2023-05-13T02:19:10.213Z,11.50
2023-05-13T02:21:37.121Z,11.50
2023-05-13T02:24:04.072Z,11.40
2023-05-13T02:26:30.936Z,11.40
2023-05-13T02:28:57.746Z,11.40
2023-05-13T02:31:24.709Z,11.30
2023-05-13T02:33:51.806Z,11.30
2023-05-13T02:36:19.788Z,11.30
2023-05-13T02:38:47.297Z,11.20
2023-05-13T02:41:15.998Z,11.20
2023-05-13T02:43:42.898Z,11.20
2023-05-13T02:46:09.877Z,11.20
2023-05-13T02:48:36.723Z,11.10
2023-05-13T02:51:03.543Z,11.10
2023-05-13T02:53:30.755Z,11.10
2023-05-13T02:56:02.395Z,11.10
2023-05-13T02:58:29.173Z,11.00
2023-05-13T03:00:56.299Z,11.00
2023-05-13T03:03:24.861Z,11.00
2023-05-13T03:05:51.952Z,10.90
2023-05-13T03:08:18.817Z,10.90
2023-05-13T03:10:45.708Z,10.90
2023-05-13T03:13:12.520Z,10.90
2023-05-13T03:15:40.163Z,10.90
2023-05-13T03:18:07.982Z,10.90
2023-05-13T03:20:34.993Z,10.80
2023-05-13T03:23:03.317Z,10.80
2023-05-13T03:25:31.386Z,10.80
2023-05-13T03:27:58.850Z,10.80
2023-05-13T03:30:29.623Z,10.70
2023-05-13T03:33:02.852Z,10.70
2023-05-13T03:35:29.756Z,10.70
2023-05-13T03:37:56.639Z,10.60
2023-05-13T03:40:23.931Z,10.60
2023-05-13T03:42:51.586Z,10.60
2023-05-13T03:45:20.989Z,10.60
2023-05-13T03:47:50.893Z,10.60
2023-05-13T03:50:18.999Z,10.60
2023-05-13T03:52:47.086Z,10.60
2023-05-13T03:55:15.699Z,10.60
2023-05-13T03:57:45.161Z,10.60
2023-05-13T04:00:12.484Z,10.60
2023-05-13T04:02:42.037Z,10.50
2023-05-13T04:05:10.114Z,10.60
2023-05-13T04:07:36.896Z,10.50
2023-05-13T04:10:03.819Z,10.50
2023-05-13T04:12:31.275Z,10.50
2023-05-13T04:14:58.106Z,10.50
2023-05-13T04:17:25.260Z,10.50
2023-05-13T04:19:55.822Z,10.50
2023-05-13T04:22:24.533Z,10.50
2023-05-13T04:24:56.356Z,10.50
2023-05-13T04:27:23.871Z,10.60
2023-05-13T04:29:53.207Z,10.60
2023-05-13T04:32:23.276Z,10.60
2023-05-13T04:34:55.376Z,10.60
2023-05-13T04:37:24.601Z,10.60
2023-05-13T04:39:54.619Z,10.60
2023-05-13T04:42:23.566Z,10.60
2023-05-13T04:44:50.468Z,10.60
2023-05-13T04:47:17.359Z,10.60
2023-05-13T04:49:44.574Z,10.60
2023-05-13T04:52:13.194Z,10.70
2023-05-13T04:54:40.174Z,10.70
2023-05-13T04:57:07.445Z,10.80
2023-05-13T04:59:35.266Z,10.70
2023-05-13T05:02:02.423Z,10.70
2023-05-13T05:04:29.492Z,10.80
2023-05-13T05:06:56.976Z,10.80
2023-05-13T05:09:23.843Z,10.90
2023-05-13T05:11:52.587Z,10.90
2023-05-13T05:14:22.056Z,10.90
2023-05-13T05:16:50.432Z,11.00
2023-05-13T05:19:17.423Z,11.10
2023-05-13T05:21:44.839Z,11.10
2023-05-13T05:24:12.315Z,11.20
2023-05-13T05:26:39.823Z,11.20
2023-05-13T05:29:08.091Z,11.30
2023-05-13T05:31:35.332Z,11.30
2023-05-13T05:34:02.800Z,11.40
2023-05-13T05:36:29.766Z,11.40
2023-05-13T05:38:56.712Z,11.50
2023-05-13T05:41:30.723Z,11.50
2023-05-13T05:43:57.646Z,11.60
2023-05-13T05:46:24.868Z,11.60
2023-05-13T05:48:52.382Z,11.70
2023-05-13T05:51:20.940Z,11.80
2023-05-13T05:53:48.618Z,11.80
2023-05-13T05:56:16.739Z,11.90
2023-05-13T05:58:45.233Z,11.90
2023-05-13T06:01:12.182Z,12.00
2023-05-13T06:03:39.452Z,12.10
2023-05-13T06:06:06.489Z,12.10
2023-05-13T06:08:34.005Z,12.30
2023-05-13T06:11:00.929Z,12.40
2023-05-13T06:13:27.833Z,12.50
2023-05-13T06:15:55.385Z,12.50
2023-05-13T06:18:22.833Z,12.60
2023-05-13T06:20:49.794Z,12.60
2023-05-13T06:23:18.570Z,12.70
2023-05-13T06:25:45.560Z,12.80
2023-05-13T06:28:12.464Z,12.90
2023-05-13T06:30:39.428Z,13.00
2023-05-13T06:33:06.469Z,13.10
2023-05-13T06:35:35.293Z,13.20
2023-05-13T06:38:04.580Z,13.30
2023-05-13T06:40:31.907Z,13.30
2023-05-13T06:42:59.106Z,13.40
2023-05-13T06:45:30.874Z,13.50
2023-05-13T06:47:58.173Z,13.60
2023-05-13T06:50:25.238Z,13.70
2023-05-13T06:52:54.744Z,13.80
2023-05-13T06:55:22.016Z,13.90
2023-05-13T06:57:48.814Z,14.00
2023-05-13T07:00:16.297Z,14.10
2023-05-13T07:02:43.354Z,14.20
2023-05-13T07:05:11.518Z,14.20
2023-05-13T07:07:38.662Z,14.30
2023-05-13T07:10:05.714Z,14.40
2023-05-13T07:12:32.851Z,14.50
2023-05-13T07:14:59.800Z,14.60
2023-05-13T07:17:26.775Z,14.60
2023-05-13T07:19:53.743Z,14.70
2023-05-13T07:22:20.532Z,14.80
2023-05-13T07:24:47.336Z,14.90
2023-05-13T07:27:14.188Z,14.90
2023-05-13T07:29:41.007Z,15.10
2023-05-13T07:32:07.998Z,15.10
2023-05-13T07:34:34.784Z,15.20
2023-05-13T07:37:01.631Z,15.30
2023-05-13T07:39:28.910Z,15.30
2023-05-13T07:41:55.957Z,15.40
2023-05-13T07:44:22.982Z,15.40
2023-05-13T07:46:51.543Z,15.50
2023-05-13T07:49:18.427Z,15.50
2023-05-13T07:51:45.279Z,15.60
2023-05-13T07:54:12.044Z,15.70
2023-05-13T07:56:38.884Z,15.70
2023-05-13T07:59:05.671Z,15.80
2023-05-13T08:01:32.449Z,15.80
2023-05-13T08:03:59.867Z,15.90
2023-05-13T08:06:26.837Z,16.00
2023-05-13T08:08:53.643Z,16.10
2023-05-13T08:11:21.790Z,16.10
2023-05-13T08:13:48.774Z,16.20
2023-05-13T08:16:15.650Z,16.30
2023-05-13T08:18:42.847Z,16.30
2023-05-13T08:21:09.697Z,16.40
2023-05-13T08:23:45.302Z,16.50
2023-05-13T08:26:13.398Z,16.60
2023-05-13T08:28:54.531Z,16.60
2023-05-13T08:31:24.298Z,16.70
2023-05-13T08:33:54.499Z,16.70
2023-05-13T08:36:22.987Z,16.80
2023-05-13T08:38:49.785Z,17.00
2023-05-13T08:41:16.709Z,17.00
2023-05-13T08:43:43.824Z,17.10
2023-05-13T08:46:11.915Z,17.20
2023-05-13T08:48:39.744Z,17.30
2023-05-13T08:51:13.837Z,17.30
2023-05-13T08:53:41.495Z,17.40
2023-05-13T08:56:08.441Z,17.50
2023-05-13T08:58:35.504Z,17.50
2023-05-13T09:01:03.332Z,17.60
2023-05-13T09:03:30.732Z,17.60
2023-05-13T09:06:00.299Z,17.70
2023-05-13T09:08:27.187Z,17.70
2023-05-13T09:10:55.446Z,17.80
2023-05-13T09:13:22.465Z,17.80
2023-05-13T09:15:50.598Z,17.90
2023-05-13T09:18:19.290Z,18.00
2023-05-13T09:20:46.531Z,18.00
2023-05-13T09:23:13.849Z,18.20
2023-05-13T09:25:40.805Z,18.20
2023-05-13T09:28:08.122Z,18.20
2023-05-13T09:30:36.286Z,18.30
2023-05-13T09:33:06.227Z,18.40
2023-05-13T09:35:33.379Z,18.40
2023-05-13T09:38:00.635Z,18.50
2023-05-13T09:40:27.650Z,18.60
2023-05-13T09:42:58.001Z,18.60
2023-05-13T09:45:25.026Z,18.70
2023-05-13T09:47:56.015Z,18.80
2023-05-13T09:50:23.199Z,18.80
2023-05-13T09:52:50.495Z,18.90
2023-05-13T09:55:17.249Z,19.00
2023-05-13T09:57:45.907Z,19.00
2023-05-13T10:00:24.778Z,19.00
2023-05-13T10:02:56.292Z,19.10
2023-05-13T10:05:23.858Z,19.20
2023-05-13T10:07:50.817Z,19.30
2023-05-13T10:10:17.651Z,19.30
2023-05-13T10:12:44.461Z,19.40
2023-05-13T10:15:11.375Z,19.40
2023-05-13T10:17:38.302Z,19.40
2023-05-13T10:20:05.511Z,19.50
2023-05-13T10:22:33.625Z,19.50
2023-05-13T10:25:01.513Z,19.50
2023-05-13T10:27:30.720Z,19.50
2023-05-13T10:29:58.175Z,19.60
2023-05-13T10:32:26.289Z,19.60
2023-05-13T10:35:02.625Z,19.70
2023-05-13T10:37:38.584Z,19.70
2023-05-13T10:40:14.565Z,19.80
2023-05-13T10:42:43.171Z,19.80
2023-05-13T10:45:10.856Z,19.90
2023-05-13T10:47:38.375Z,20.00
2023-05-13T10:50:24.366Z,20.00
2023-05-13T10:52:54.852Z,20.00
2023-05-13T10:55:21.781Z,20.00
2023-05-13T10:58:04.810Z,20.10
2023-05-13T11:00:31.969Z,20.10
2023-05-13T11:03:08.742Z,20.30
2023-05-13T11:05:38.182Z,20.30
2023-05-13T11:08:05.109Z,20.30
2023-05-13T11:10:32.125Z,20.30
2023-05-13T11:13:14.391Z,20.40
2023-05-13T11:16:00.155Z,20.40
2023-05-13T11:18:31.087Z,20.50
2023-05-13T11:21:04.435Z,20.50
2023-05-13T11:23:33.218Z,20.50
2023-05-13T11:26:12.137Z,20.60
2023-05-13T11:28:57.903Z,20.60
2023-05-13T11:31:27.351Z,20.60
2023-05-13T11:34:14.932Z,20.60
2023-05-13T11:36:48.936Z,20.70
2023-05-13T11:39:16.698Z,20.70
2023-05-13T11:41:44.977Z,20.70
2023-05-13T11:44:14.047Z,20.80
2023-05-13T11:46:50.137Z,20.90
2023-05-13T11:49:33.400Z,21.00
2023-05-13T11:52:01.015Z,21.00
2023-05-13T11:54:28.089Z,21.00
2023-05-13T11:56:54.966Z,21.10
2023-05-13T11:59:22.630Z,21.10
2023-05-13T12:02:00.231Z,21.10
2023-05-13T12:04:30.584Z,21.10
2023-05-13T12:06:58.084Z,21.10
2023-05-13T12:09:24.995Z,21.10
2023-05-13T12:11:52.801Z,21.20
2023-05-13T12:14:22.761Z,21.20
2023-05-13T12:16:49.843Z,21.20
2023-05-13T12:19:16.760Z,21.20
2023-05-13T12:21:43.659Z,21.30
2023-05-13T12:24:17.343Z,21.30
2023-05-13T12:26:44.269Z,21.40
2023-05-13T12:29:11.022Z,21.40
2023-05-13T12:31:38.083Z,21.40
2023-05-13T12:34:06.407Z,21.40
2023-05-13T12:36:36.650Z,21.40
2023-05-13T12:39:08.966Z,21.30
2023-05-13T12:41:36.874Z,21.30
2023-05-13T12:44:06.014Z,21.30
2023-05-13T12:46:33.023Z,21.30
2023-05-13T12:49:00.718Z,21.40
2023-05-13T12:51:27.945Z,21.40
2023-05-13T12:53:55.693Z,21.40
2023-05-13T12:56:23.333Z,21.40
2023-05-13T12:58:50.669Z,21.50
2023-05-13T13:01:17.861Z,21.40
2023-05-13T13:03:45.683Z,21.40
2023-05-13T13:06:13.329Z,21.30
2023-05-13T13:08:40.278Z,21.30
2023-05-13T13:11:07.202Z,21.20
2023-05-13T13:13:34.372Z,21.20
2023-05-13T13:16:02.128Z,21.10
2023-05-13T13:18:29.227Z,21.10
2023-05-13T13:20:56.105Z,21.00
2023-05-13T13:23:23.004Z,21.00
2023-05-13T13:25:49.871Z,21.00
2023-05-13T13:28:16.810Z,21.10
2023-05-13T13:30:46.747Z,21.10
2023-05-13T13:33:15.074Z,21.10
2023-05-13T13:35:45.511Z,21.20
2023-05-13T13:38:12.481Z,21.20
2023-05-13T13:40:39.633Z,21.30
2023-05-13T13:43:07.120Z,21.30
2023-05-13T13:45:34.136Z,21.40
2023-05-13T13:48:01.254Z,21.40
2023-05-13T13:50:28.289Z,21.40
2023-05-13T13:52:55.190Z,21.40
2023-05-13T13:55:22.699Z,21.40
2023-05-13T13:57:49.638Z,21.50
2023-05-13T14:00:16.776Z,21.50
2023-05-13T14:02:44.371Z,21.60
2023-05-13T14:05:11.750Z,21.60
2023-05-13T14:07:38.638Z,21.60
2023-05-13T14:10:05.942Z,21.60
2023-05-13T14:12:32.791Z,21.60
2023-05-13T14:15:00.067Z,21.60
2023-05-13T14:17:27.077Z,21.60
2023-05-13T14:19:55.628Z,21.60
2023-05-13T14:22:23.693Z,21.60
2023-05-13T14:24:53.773Z,21.60
2023-05-13T14:27:21.570Z,21.70
2023-05-13T14:29:49.031Z,21.80
2023-05-13T14:32:16.099Z,21.80
2023-05-13T14:34:43.135Z,21.70
2023-05-13T14:37:09.915Z,21.70
2023-05-13T14:39:36.995Z,21.60
2023-05-13T14:42:04.135Z,21.50
2023-05-13T14:44:31.519Z,21.40
2023-05-13T14:46:58.493Z,21.30
2023-05-13T14:49:25.434Z,21.20
2023-05-13T14:51:52.224Z,21.20
2023-05-13T14:54:19.930Z,21.10
2023-05-13T14:56:46.685Z,21.10
2023-05-13T14:59:13.564Z,21.20
2023-05-13T15:01:40.614Z,21.20
2023-05-13T15:04:07.520Z,21.20
2023-05-13T15:06:35.337Z,21.30
2023-05-13T15:09:02.288Z,21.30
2023-05-13T15:11:29.303Z,21.30
2023-05-13T15:13:56.107Z,21.30
2023-05-13T15:16:22.986Z,21.30
2023-05-13T15:18:50.467Z,21.20
2023-05-13T15:21:17.582Z,21.20
2023-05-13T15:23:44.667Z,21.20
2023-05-13T15:26:11.637Z,21.20
2023-05-13T15:28:38.432Z,21.20
2023-05-13T15:31:05.702Z,21.20
2023-05-13T15:33:32.742Z,21.30
2023-05-13T15:35:59.691Z,21.40
2023-05-13T15:38:26.954Z,21.40
2023-05-13T15:40:53.725Z,21.40
2023-05-13T15:43:20.876Z,21.40
2023-05-13T15:45:47.927Z,21.30
2023-05-13T15:48:14.961Z,21.20
2023-05-13T15:50:41.883Z,21.20
2023-05-13T15:53:08.646Z,21.20
2023-05-13T15:55:37.414Z,21.20
2023-05-13T15:58:04.204Z,21.10
2023-05-13T16:00:31.201Z,21.10
2023-05-13T16:02:58.111Z,21.10
2023-05-13T16:05:24.947Z,21.00
2023-05-13T16:07:51.764Z,21.00
2023-05-13T16:10:18.942Z,21.10
2023-05-13T16:12:45.748Z,21.10
2023-05-13T16:15:12.528Z,21.10
2023-05-13T16:17:39.312Z,21.10
2023-05-13T16:20:07.026Z,21.10
2023-05-13T16:22:37.695Z,21.10
2023-05-13T16:25:05.680Z,21.10
2023-05-13T16:27:32.894Z,21.00
2023-05-13T16:30:00.325Z,21.10
2023-05-13T16:32:27.816Z,21.10
2023-05-13T16:34:54.881Z,21.10
2023-05-13T16:37:21.873Z,21.10
2023-05-13T16:39:48.760Z,21.10
2023-05-13T16:42:15.651Z,21.10
2023-05-13T16:44:42.725Z,21.10
2023-05-13T16:47:09.511Z,21.10
2023-05-13T16:49:36.517Z,21.10
2023-05-13T16:52:03.902Z,21.10
2023-05-13T16:54:31.031Z,21.10
2023-05-13T16:56:58.196Z,21.10
2023-05-13T16:59:26.437Z,21.00
2023-05-13T17:01:54.027Z,21.00
2023-05-13T17:04:21.333Z,20.90
2023-05-13T17:06:48.205Z,20.90
2023-05-13T17:09:16.228Z,20.90
2023-05-13T17:11:43.461Z,20.90
2023-05-13T17:14:10.543Z,20.80
2023-05-13T17:16:38.603Z,20.80
2023-05-13T17:19:05.645Z,20.80
2023-05-13T17:21:32.553Z,20.80
2023-05-13T17:23:59.674Z,20.80
2023-05-13T17:26:27.834Z,20.80
2023-05-13T17:28:54.664Z,20.80
2023-05-13T17:31:21.911Z,20.70
2023-05-13T17:33:48.774Z,20.70
2023-05-13T17:36:15.596Z,20.70
2023-05-13T17:38:42.435Z,20.70
2023-05-13T17:41:09.280Z,20.70
2023-05-13T17:43:36.462Z,20.70
2023-05-13T17:46:03.752Z,20.70
2023-05-13T17:48:31.683Z,20.60
2023-05-13T17:50:59.102Z,20.60
2023-05-13T17:53:26.242Z,20.50
2023-05-13T17:55:53.804Z,20.50
2023-05-13T17:58:20.818Z,20.50
2023-05-13T18:00:48.631Z,20.50
2023-05-13T18:03:16.326Z,20.50
2023-05-13T18:05:43.229Z,20.50
2023-05-13T18:08:10.338Z,20.40
2023-05-13T18:10:37.157Z,20.40
2023-05-13T18:13:04.145Z,20.40
2023-05-13T18:15:31.075Z,20.40
2023-05-13T18:17:57.972Z,20.30
2023-05-13T18:20:25.019Z,20.30
2023-05-13T18:22:52.016Z,20.20
2023-05-13T18:25:18.941Z,20.20
2023-05-13T18:27:45.777Z,20.10
2023-05-13T18:30:12.781Z,20.10
2023-05-13T18:32:39.709Z,20.00
2023-05-13T18:35:06.715Z,19.90
2023-05-13T18:37:33.700Z,19.90
2023-05-13T18:40:01.865Z,19.90
2023-05-13T18:42:29.604Z,19.80
2023-05-13T18:44:56.400Z,19.70
2023-05-13T18:47:23.214Z,19.70
2023-05-13T18:49:50.050Z,19.70
2023-05-13T18:52:16.999Z,19.70
2023-05-13T18:54:43.805Z,19.70
2023-05-13T18:57:11.149Z,19.60
2023-05-13T18:59:38.279Z,19.60
2023-05-13T19:02:07.926Z,19.50
2023-05-13T19:04:34.943Z,19.40
2023-05-13T19:07:02.195Z,19.30
2023-05-13T19:09:28.990Z,19.30
2023-05-13T19:11:55.766Z,19.10
2023-05-13T19:14:22.936Z,19.00
2023-05-13T19:16:49.770Z,19.00
2023-05-13T19:19:16.760Z,18.90
2023-05-13T19:21:43.697Z,18.80
2023-05-13T19:24:10.516Z,18.80
2023-05-13T19:26:37.808Z,18.80
2023-05-13T19:29:04.718Z,18.70
2023-05-13T19:31:32.503Z,18.70
2023-05-13T19:34:01.341Z,18.60
2023-05-13T19:36:28.195Z,18.50
2023-05-13T19:38:55.228Z,18.50
2023-05-13T19:41:22.555Z,18.40
2023-05-13T19:43:49.456Z,18.40
2023-05-13T19:46:16.460Z,18.20
2023-05-13T19:48:43.253Z,18.20
2023-05-13T19:51:10.072Z,18.10
2023-05-13T19:53:36.878Z,18.10
2023-05-13T19:56:03.898Z,18.00
2023-05-13T19:58:30.786Z,17.90
2023-05-13T20:00:58.132Z,17.80
2023-05-13T20:03:25.009Z,17.70
2023-05-13T20:05:53.893Z,17.70
2023-05-13T20:08:21.180Z,17.60
2023-05-13T20:10:47.978Z,17.50
2023-05-13T20:13:14.747Z,17.40
2023-05-13T20:15:42.285Z,17.40
2023-05-13T20:18:09.108Z,17.30
2023-05-13T20:20:36.093Z,17.20
2023-05-13T20:23:03.015Z,17.20
2023-05-13T20:25:29.786Z,17.10
2023-05-13T20:27:56.955Z,17.10
2023-05-13T20:30:24.336Z,17.00
2023-05-13T20:32:51.546Z,16.90
2023-05-13T20:35:18.311Z,16.90
2023-05-13T20:37:45.098Z,16.80
2023-05-13T20:40:12.080Z,16.70
2023-05-13T20:42:38.874Z,16.70
2023-05-13T20:45:05.999Z,16.60
2023-05-13T20:47:32.807Z,16.50
2023-05-13T20:49:59.583Z,16.50
2023-05-13T20:52:26.656Z,16.30
2023-05-13T20:54:53.537Z,16.30
2023-05-13T20:57:20.408Z,16.20
2023-05-13T20:59:47.330Z,16.20
2023-05-13T21:02:14.146Z,16.10
2023-05-13T21:04:40.879Z,16.00
2023-05-13T21:07:07.878Z,15.90
2023-05-13T21:09:34.728Z,15.90
2023-05-13T21:12:01.572Z,15.80
2023-05-13T21:14:28.386Z,15.70
2023-05-13T21:16:55.436Z,15.70
2023-05-13T21:19:22.774Z,15.60
2023-05-13T21:21:49.943Z,15.50
2023-05-13T21:24:17.416Z,15.50
2023-05-13T21:26:44.490Z,15.40
2023-05-13T21:29:11.563Z,15.40
2023-05-13T21:31:38.566Z,15.30
2023-05-13T21:34:05.430Z,15.20
2023-05-13T21:36:33.213Z,15.20
2023-05-13T21:39:00.017Z,15.10
2023-05-13T21:41:27.299Z,15.10
2023-05-13T21:43:54.176Z,15.00
2023-05-13T21:46:22.978Z,14.90
2023-05-13T21:48:49.783Z,14.90
2023-05-13T21:51:16.634Z,14.80
2023-05-13T21:53:43.517Z,14.80
2023-05-13T21:56:10.321Z,14.70
2023-05-13T21:58:37.113Z,14.60
2023-05-13T22:01:04.039Z,14.50
2023-05-13T22:03:30.899Z,14.50
2023-05-13T22:05:57.739Z,14.40
2023-05-13T22:08:24.578Z,14.40
2023-05-13T22:10:51.361Z,14.30
2023-05-13T22:13:21.414Z,14.30
2023-05-13T22:15:48.855Z,14.30
2023-05-13T22:18:15.935Z,14.20
2023-05-13T22:20:42.768Z,14.20
2023-05-13T22:23:09.677Z,14.20
2023-05-13T22:25:36.462Z,14.10
2023-05-13T22:28:03.347Z,14.00
2023-05-13T22:30:30.640Z,14.00
2023-05-13T22:32:57.559Z,13.90
2023-05-13T22:35:24.364Z,13.90
2023-05-13T22:37:52.625Z,13.80
2023-05-13T22:40:19.587Z,13.80
2023-05-13T22:42:46.715Z,13.80
2023-05-13T22:45:13.493Z,13.80
2023-05-13T22:47:40.365Z,13.80
2023-05-13T22:50:07.518Z,13.70
2023-05-13T22:52:34.330Z,13.70
2023-05-13T22:55:01.377Z,13.60
2023-05-13T22:57:28.236Z,13.60
2023-05-13T22:59:55.101Z,13.60
2023-05-13T23:02:21.966Z,13.60
2023-05-13T23:04:49.018Z,13.50
2023-05-13T23:07:15.758Z,13.50
2023-05-13T23:09:43.012Z,13.50
2023-05-13T23:12:09.847Z,13.40
2023-05-13T23:14:36.680Z,13.40
2023-05-13T23:17:03.469Z,13.40
2023-05-13T23:19:30.597Z,13.30
2023-05-13T23:21:57.595Z,13.30
2023-05-13T23:24:24.452Z,13.30
2023-05-13T23:26:51.402Z,13.30
2023-05-13T23:29:18.198Z,13.30
2023-05-13T23:31:45.001Z,13.30
2023-05-13T23:34:11.840Z,13.20
2023-05-13T23:36:38.747Z,13.20
2023-05-13T23:39:06.056Z,13.20
2023-05-13T23:41:34.942Z,13.20
2023-05-13T23:44:02.090Z,13.20
2023-05-13T23:46:29.057Z,13.20
2023-05-13T23:48:55.861Z,13.20
2023-05-13T23:51:22.665Z,13.20
2023-05-13T23:53:49.530Z,13.10
2023-05-13T23:56:16.314Z,13.10
2023-05-13T23:58:43.262Z,13.10
